createdAt,value
2022-12-17T00:01:02.459Z,93500.19
2022-12-17T00:02:17.554Z,93498.28
2022-12-17T00:03:32.814Z,93492.91
2022-12-17T00:04:48.306Z,93497.53
2022-12-17T00:06:03.789Z,93492.13
2022-12-17T00:07:18.970Z,93506.09
2022-12-17T00:08:34.403Z,93499.91
2022-12-17T00:09:50.510Z,93501.91
2022-12-17T00:11:05.873Z,93509.69
2022-12-17T00:12:21.028Z,93503.91
2022-12-17T00:13:41.555Z,93495.47
2022-12-17T00:14:56.705Z,93502.47
2022-12-17T00:16:12.118Z,93501.44
2022-12-17T00:17:27.609Z,93508.38
2022-12-17T00:18:42.834Z,93509.06
2022-12-17T00:19:57.784Z,93515.69
2022-12-17T00:21:14.302Z,93509.13
2022-12-17T00:22:29.468Z,93519.47
2022-12-17T00:23:44.297Z,93517.50
2022-12-17T00:24:59.159Z,93451.97
2022-12-17T00:26:17.556Z,93504.31
2022-12-17T00:27:32.782Z,93468.75
2022-12-17T00:28:48.267Z,93486.72
2022-12-17T00:30:03.351Z,93490.31
2022-12-17T00:31:18.637Z,93482.72
2022-12-17T00:32:33.333Z,93486.03
2022-12-17T00:33:48.495Z,93483.91
2022-12-17T00:35:03.910Z,93480.16
2022-12-17T00:36:19.295Z,93444.22
2022-12-17T00:37:34.559Z,93477.94
2022-12-17T00:38:49.866Z,93475.34
2022-12-17T00:40:05.206Z,93486.13
2022-12-17T00:41:20.769Z,93480.25
2022-12-17T00:42:35.744Z,93480.41
2022-12-17T00:43:50.619Z,93465.91
2022-12-17T00:45:06.754Z,93481.63
2022-12-17T00:46:22.247Z,93469.91
2022-12-17T00:47:37.709Z,93475.53
2022-12-17T00:48:53.523Z,93485.94
2022-12-17T00:50:08.703Z,93481.72
2022-12-17T00:51:24.122Z,93483.03
2022-12-17T00:53:58.157Z,93481.41
2022-12-17T00:55:13.059Z,93471.88
2022-12-17T00:56:28.581Z,93476.97
2022-12-17T00:57:43.557Z,93481.72
2022-12-17T00:58:58.724Z,93481.81
2022-12-17T01:00:13.876Z,93469.56
2022-12-17T01:01:40.092Z,93435.69
2022-12-17T01:03:12.484Z,93476.28
2022-12-17T01:04:28.115Z,93450.94
2022-12-17T01:05:43.307Z,93477.72
2022-12-17T01:06:58.284Z,93474.28
2022-12-17T01:08:14.384Z,93483.63
2022-12-17T01:09:29.791Z,93485.50
2022-12-17T01:10:45.104Z,93448.34
2022-12-17T01:12:00.548Z,93486.50
2022-12-17T01:13:15.816Z,93481.94
2022-12-17T01:14:30.931Z,93477.53
2022-12-17T01:16:03.773Z,93480.63
2022-12-17T01:17:19.132Z,93480.41
2022-12-17T01:18:38.170Z,93475.72
2022-12-17T01:19:53.528Z,93474.09
2022-12-17T01:21:15.596Z,93477.19
2022-12-17T01:22:30.854Z,93481.63
2022-12-17T01:23:46.278Z,93479.50
2022-12-17T01:25:01.523Z,93474.19
2022-12-17T01:26:18.243Z,93477.31
2022-12-17T01:27:33.766Z,93459.69
2022-12-17T01:28:49.276Z,93478.63
2022-12-17T01:30:04.635Z,93479.94
2022-12-17T01:31:19.752Z,93475.16
2022-12-17T01:32:35.357Z,93471.50
2022-12-17T01:33:50.784Z,93475.31
2022-12-17T01:35:06.062Z,93477.91
2022-12-17T01:36:21.252Z,93401.63
2022-12-17T01:37:36.535Z,93468.69
2022-12-17T01:38:52.140Z,93481.72
2022-12-17T01:40:07.067Z,93475.59
2022-12-17T01:41:24.517Z,93470.81
2022-12-17T01:42:39.675Z,93487.19
2022-12-17T01:43:56.827Z,93489.53
2022-12-17T01:45:13.074Z,93488.56
2022-12-17T01:46:28.604Z,93473.50
2022-12-17T01:47:45.968Z,93468.78
2022-12-17T01:49:04.997Z,93479.28
2022-12-17T01:50:20.495Z,93482.00
2022-12-17T01:51:36.992Z,93485.72
2022-12-17T01:52:52.847Z,93369.47
2022-12-17T01:54:11.639Z,93471.50
2022-12-17T01:55:27.045Z,93488.53
2022-12-17T01:56:42.379Z,93493.72
2022-12-17T01:57:58.088Z,93469.09
2022-12-17T01:59:13.418Z,93436.59
2022-12-17T02:00:32.166Z,93488.34
2022-12-17T02:01:47.839Z,93468.78
2022-12-17T02:03:03.771Z,93470.56
2022-12-17T02:04:19.184Z,93466.47
2022-12-17T02:05:34.715Z,93464.03
2022-12-17T02:06:56.454Z,93445.78
2022-12-17T02:08:50.985Z,93462.72
2022-12-17T02:10:30.634Z,93457.34
2022-12-17T02:12:18.168Z,93447.84
2022-12-17T02:13:39.747Z,93425.94
2022-12-17T02:15:00.894Z,93442.28
2022-12-17T02:16:24.016Z,93452.47
2022-12-17T02:17:43.967Z,93457.00
2022-12-17T02:19:07.984Z,93453.47
2022-12-17T02:20:32.259Z,93457.59
2022-12-17T02:21:50.011Z,93453.94
2022-12-17T02:23:14.185Z,93449.06
2022-12-17T02:25:02.754Z,93445.31
2022-12-17T02:26:51.985Z,93394.03
2022-12-17T02:28:07.743Z,93467.03
2022-12-17T02:29:25.625Z,93466.00
2022-12-17T02:30:41.151Z,93458.06
2022-12-17T02:31:59.761Z,93465.59
2022-12-17T02:33:15.446Z,93458.97
2022-12-17T02:34:30.610Z,93462.72
2022-12-17T02:35:50.110Z,93461.28
2022-12-17T02:37:05.018Z,93455.19
2022-12-17T02:38:19.954Z,93444.84
2022-12-17T02:39:35.185Z,93457.84
2022-12-17T02:40:52.619Z,93462.16
2022-12-17T02:42:15.343Z,93460.25
2022-12-17T02:43:30.717Z,93464.38
2022-12-17T02:44:47.323Z,93464.84
2022-12-17T02:46:03.010Z,93458.06
2022-12-17T02:47:21.594Z,93449.94
2022-12-17T02:48:37.436Z,93458.69
2022-12-17T02:49:52.953Z,93446.81
2022-12-17T02:51:08.275Z,93443.47
2022-12-17T02:52:23.796Z,93437.06
2022-12-17T02:53:39.146Z,93443.47
2022-12-17T02:54:54.068Z,93436.41
2022-12-17T02:56:09.078Z,93429.31
2022-12-17T02:57:24.515Z,93421.03
2022-12-17T02:58:39.987Z,93429.63
2022-12-17T02:59:54.866Z,93395.59
2022-12-17T03:01:12.322Z,93416.28
2022-12-17T03:02:27.780Z,93411.81
2022-12-17T03:03:47.381Z,93410.25
2022-12-17T03:05:21.407Z,93403.06
2022-12-17T03:06:40.746Z,93401.28
2022-12-17T03:07:55.903Z,93396.22
2022-12-17T03:09:10.735Z,93372.22
2022-12-17T03:10:26.197Z,93375.69
2022-12-17T03:11:41.624Z,93362.84
2022-12-17T03:12:56.429Z,93409.19
2022-12-17T03:14:11.857Z,93381.09
2022-12-17T03:15:27.444Z,93389.38
2022-12-17T03:16:42.997Z,93392.16
2022-12-17T03:17:58.653Z,93383.53
2022-12-17T03:19:13.594Z,93381.53
2022-12-17T03:20:28.877Z,93395.38
2022-12-17T03:21:43.904Z,93403.09
2022-12-17T03:22:59.485Z,93411.47
2022-12-17T03:24:14.727Z,93365.00
2022-12-17T03:25:29.977Z,93401.78
2022-12-17T03:26:45.180Z,93390.59
2022-12-17T03:28:00.785Z,93390.84
2022-12-17T03:29:16.353Z,93392.72
2022-12-17T03:30:35.734Z,93392.72
2022-12-17T03:31:52.454Z,93397.19
2022-12-17T03:33:07.765Z,93390.16
2022-12-17T03:34:23.298Z,93402.13
2022-12-17T03:35:38.201Z,93405.03
2022-12-17T03:36:53.214Z,93399.88
2022-12-17T03:38:08.605Z,93395.69
2022-12-17T03:39:23.548Z,93349.97
2022-12-17T03:40:38.779Z,93394.56
2022-12-17T03:41:54.160Z,93402.41
2022-12-17T03:43:09.228Z,93390.44
2022-12-17T03:44:25.418Z,93415.16
2022-12-17T03:45:40.830Z,93367.78
2022-12-17T03:46:56.084Z,93410.84
2022-12-17T03:48:21.703Z,93405.44
2022-12-17T03:49:37.325Z,93406.69
2022-12-17T03:50:52.840Z,93408.66
2022-12-17T03:52:08.254Z,93409.78
2022-12-17T03:53:24.365Z,93410.03
2022-12-17T03:54:39.823Z,93410.31
2022-12-17T03:55:55.305Z,93407.31
2022-12-17T03:57:15.812Z,93413.28
2022-12-17T03:58:31.277Z,93409.78
2022-12-17T03:59:46.296Z,93408.34
2022-12-17T04:01:01.790Z,93418.31
2022-12-17T04:02:17.484Z,93409.91
2022-12-17T04:03:32.944Z,93386.13
2022-12-17T04:04:48.239Z,93382.38
2022-12-17T04:06:03.964Z,93403.47
2022-12-17T04:07:19.266Z,93408.06
2022-12-17T04:08:34.897Z,93410.03
2022-12-17T04:09:50.245Z,93389.19
2022-12-17T04:11:05.312Z,93405.72
2022-12-17T04:12:20.476Z,93411.06
2022-12-17T04:13:40.448Z,93408.25
2022-12-17T04:14:56.308Z,93407.47
2022-12-17T04:16:11.328Z,93420.13
2022-12-17T04:17:26.594Z,93423.84
2022-12-17T04:18:41.674Z,93417.56
2022-12-17T04:19:56.657Z,93393.22
2022-12-17T04:21:11.864Z,93406.31
2022-12-17T04:22:27.213Z,93410.47
2022-12-17T04:23:42.778Z,93360.69
2022-12-17T04:24:58.085Z,93426.94
2022-12-17T04:26:12.897Z,93368.59
2022-12-17T04:27:28.315Z,93390.38
2022-12-17T04:28:43.858Z,93408.78
2022-12-17T04:29:59.283Z,93415.25
2022-12-17T04:31:14.900Z,93403.94
2022-12-17T04:32:34.896Z,93404.94
2022-12-17T04:34:04.103Z,93406.63
2022-12-17T04:35:18.983Z,93406.97
2022-12-17T04:36:35.544Z,93413.09
2022-12-17T04:37:50.988Z,93399.88
2022-12-17T04:39:06.436Z,93396.88
2022-12-17T04:40:22.397Z,93397.31
2022-12-17T04:41:37.605Z,93403.50
2022-12-17T04:42:53.009Z,93370.53
2022-12-17T04:44:08.030Z,93404.44
2022-12-17T04:45:23.500Z,93394.84
2022-12-17T04:46:38.495Z,93392.50
2022-12-17T04:47:53.563Z,93397.66
2022-12-17T04:49:09.043Z,93407.88
2022-12-17T04:50:24.784Z,93410.97
2022-12-17T04:51:40.304Z,93427.28
2022-12-17T04:52:55.847Z,93422.66
2022-12-17T04:54:11.176Z,93405.66
2022-12-17T04:55:26.717Z,93422.34
2022-12-17T04:56:42.261Z,93415.88
2022-12-17T04:57:57.823Z,93438.78
2022-12-17T04:59:12.845Z,93450.72
2022-12-17T05:00:28.733Z,93433.06
2022-12-17T05:01:44.303Z,93454.28
2022-12-17T05:02:59.728Z,93443.75
2022-12-17T05:04:15.048Z,93456.78
2022-12-17T05:05:30.111Z,93448.66
2022-12-17T05:06:49.835Z,93459.53
2022-12-17T05:08:04.878Z,93467.84
2022-12-17T05:09:19.860Z,93461.09
2022-12-17T05:10:35.205Z,93474.16
2022-12-17T05:11:50.789Z,93468.72
2022-12-17T05:13:05.981Z,93467.63
2022-12-17T05:14:21.394Z,93462.31
2022-12-17T05:15:36.817Z,93474.81
2022-12-17T05:16:52.366Z,93469.00
2022-12-17T05:18:07.844Z,93454.16
2022-12-17T05:19:22.851Z,93455.19
2022-12-17T05:20:38.325Z,93435.34
2022-12-17T05:21:53.738Z,93470.97
2022-12-17T05:23:09.014Z,93460.28
2022-12-17T05:24:24.441Z,93458.94
2022-12-17T05:25:40.333Z,93462.28
2022-12-17T05:26:55.888Z,93427.31
2022-12-17T05:28:12.599Z,93454.59
2022-12-17T05:29:27.893Z,93465.88
2022-12-17T05:30:43.247Z,93469.91
2022-12-17T05:31:58.197Z,93465.75
2022-12-17T05:33:20.831Z,93436.75
2022-12-17T05:34:35.803Z,93486.47
2022-12-17T05:35:51.254Z,93457.88
2022-12-17T05:37:06.282Z,93459.03
2022-12-17T05:38:29.436Z,93433.03
2022-12-17T05:39:45.016Z,93498.25
2022-12-17T05:41:00.345Z,93519.00
2022-12-17T05:42:15.330Z,93503.50
2022-12-17T05:43:31.737Z,93505.09
2022-12-17T05:44:46.669Z,93485.28
2022-12-17T05:46:03.096Z,93522.38
2022-12-17T05:47:18.381Z,93477.16
2022-12-17T05:48:33.464Z,93503.72
2022-12-17T05:49:48.947Z,93469.91
2022-12-17T05:51:09.305Z,93505.13
2022-12-17T05:52:25.267Z,93499.81
2022-12-17T05:53:40.812Z,93471.53
2022-12-17T05:54:55.923Z,93489.63
2022-12-17T05:56:12.305Z,93480.41
2022-12-17T05:57:27.543Z,93472.91
2022-12-17T05:58:42.577Z,93465.25
2022-12-17T05:59:57.893Z,93480.63
2022-12-17T06:01:22.514Z,93485.19
2022-12-17T06:02:37.863Z,93498.22
2022-12-17T06:03:53.608Z,93520.53
2022-12-17T06:05:08.527Z,93509.31
2022-12-17T06:06:23.766Z,93496.38
2022-12-17T06:07:39.266Z,93498.78
2022-12-17T06:08:54.427Z,93487.75
2022-12-17T06:10:09.615Z,93499.25
2022-12-17T06:11:41.807Z,93497.66
2022-12-17T06:12:57.007Z,93487.44
2022-12-17T06:14:12.209Z,93497.56
2022-12-17T06:15:27.708Z,93492.84
2022-12-17T06:16:42.878Z,93499.44
2022-12-17T06:17:58.119Z,93499.59
2022-12-17T06:19:13.140Z,93510.69
2022-12-17T06:20:28.895Z,93510.69
2022-12-17T06:21:43.928Z,93519.94
2022-12-17T06:22:59.432Z,93505.66
2022-12-17T06:24:14.883Z,93508.09
2022-12-17T06:25:30.222Z,93494.41
2022-12-17T06:26:45.223Z,93525.47
2022-12-17T06:28:11.034Z,93527.72
2022-12-17T06:29:26.332Z,93522.97
2022-12-17T06:30:41.343Z,93525.44
2022-12-17T06:31:56.335Z,93508.75
2022-12-17T06:33:11.686Z,93526.97
2022-12-17T06:34:26.923Z,93539.75
2022-12-17T06:35:41.856Z,93529.97
2022-12-17T06:36:56.833Z,93541.88
2022-12-17T06:38:23.778Z,93542.03
2022-12-17T06:39:39.152Z,93533.66
2022-12-17T06:40:54.446Z,93522.88
2022-12-17T06:42:09.276Z,93534.91
2022-12-17T06:43:25.512Z,93545.53
2022-12-17T06:44:40.374Z,93517.22
2022-12-17T06:45:55.355Z,93528.78
2022-12-17T06:47:10.682Z,93521.00
2022-12-17T06:48:27.432Z,93538.16
2022-12-17T06:49:42.873Z,93545.44
2022-12-17T06:50:58.009Z,93549.75
2022-12-17T06:52:12.898Z,93555.38
2022-12-17T06:53:29.157Z,93541.31
2022-12-17T06:54:44.419Z,93540.72
2022-12-17T06:55:59.436Z,93548.75
2022-12-17T06:57:14.612Z,93563.94
2022-12-17T06:58:29.542Z,93573.44
2022-12-17T06:59:44.654Z,93570.66
2022-12-17T07:01:00.213Z,93579.25
2022-12-17T07:02:15.240Z,93607.31
2022-12-17T07:03:30.775Z,93592.19
2022-12-17T07:04:45.829Z,93629.78
2022-12-17T07:06:01.563Z,93596.22
2022-12-17T07:07:17.046Z,93650.19
2022-12-17T07:08:32.526Z,93634.59
2022-12-17T07:09:47.872Z,93689.44
2022-12-17T07:11:03.036Z,93709.03
2022-12-17T07:12:17.964Z,93706.94
2022-12-17T07:13:32.985Z,93701.22
2022-12-17T07:14:48.287Z,93708.06
2022-12-17T07:16:03.303Z,93698.97
2022-12-17T07:17:18.193Z,93694.50
2022-12-17T07:18:33.696Z,93704.13
2022-12-17T07:19:48.830Z,93640.94
2022-12-17T07:21:04.297Z,93689.94
2022-12-17T07:22:19.629Z,93684.53
2022-12-17T07:23:35.141Z,93675.78
2022-12-17T07:24:50.445Z,93677.69
2022-12-17T07:26:05.390Z,93669.22
2022-12-17T07:27:20.324Z,93680.50
2022-12-17T07:28:35.320Z,93655.34
2022-12-17T07:29:50.392Z,93604.53
2022-12-17T07:31:05.678Z,93691.72
2022-12-17T07:32:21.136Z,93660.84
2022-12-17T07:33:36.795Z,93625.69
2022-12-17T07:34:52.204Z,93615.53
2022-12-17T07:36:07.144Z,93619.91
2022-12-17T07:37:22.459Z,93598.75
2022-12-17T07:38:37.337Z,93640.34
2022-12-17T07:39:52.407Z,93608.84
2022-12-17T07:41:08.015Z,93614.75
2022-12-17T07:42:23.490Z,93591.13
2022-12-17T07:43:39.330Z,93634.19
2022-12-17T07:44:55.136Z,93615.03
2022-12-17T07:46:10.753Z,93586.31
2022-12-17T07:47:25.838Z,93596.31
2022-12-17T07:48:41.150Z,93580.75
2022-12-17T07:49:56.397Z,93564.91
2022-12-17T07:51:11.906Z,93589.75
2022-12-17T07:52:26.913Z,93626.78
2022-12-17T07:53:41.693Z,93638.91
2022-12-17T07:54:56.847Z,93639.84
2022-12-17T07:56:11.654Z,93647.16
2022-12-17T07:57:26.981Z,93651.28
2022-12-17T07:58:41.895Z,93654.44
2022-12-17T07:59:57.017Z,93651.16
2022-12-17T08:01:12.780Z,93647.16
2022-12-17T08:02:29.462Z,93637.66
2022-12-17T08:03:44.930Z,93633.63
2022-12-17T08:05:00.228Z,93636.03
2022-12-17T08:06:18.054Z,93629.28
2022-12-17T08:07:33.290Z,93632.84
2022-12-17T08:08:48.421Z,93642.28
2022-12-17T08:10:03.251Z,93643.00
2022-12-17T08:11:18.336Z,93642.78
2022-12-17T08:12:34.463Z,93656.50
2022-12-17T08:13:49.420Z,93639.41
2022-12-17T08:15:04.499Z,93669.97
2022-12-17T08:16:19.336Z,93668.03
2022-12-17T08:17:34.786Z,93682.38
2022-12-17T08:18:49.967Z,93683.34
2022-12-17T08:20:05.007Z,93691.44
2022-12-17T08:21:24.390Z,93666.69
2022-12-17T08:22:39.653Z,93663.97
2022-12-17T08:23:54.645Z,93669.09
2022-12-17T08:25:09.621Z,93655.84
2022-12-17T08:26:25.129Z,93670.72
2022-12-17T08:27:40.679Z,93650.53
2022-12-17T08:28:56.242Z,93660.69
2022-12-17T08:30:11.935Z,93659.06
2022-12-17T08:31:27.094Z,93647.44
2022-12-17T08:32:42.453Z,93667.19
2022-12-17T08:33:57.650Z,93646.56
2022-12-17T08:35:12.840Z,93669.31
2022-12-17T08:36:27.800Z,93678.59
2022-12-17T08:37:42.983Z,93671.06
2022-12-17T08:38:58.354Z,93667.06
2022-12-17T08:40:13.316Z,93680.22
2022-12-17T08:41:28.316Z,93690.56
2022-12-17T08:42:44.003Z,93700.13
2022-12-17T08:43:58.817Z,93716.00
2022-12-17T08:45:13.963Z,93722.72
2022-12-17T08:46:29.118Z,93732.22
2022-12-17T08:47:44.228Z,93736.69
2022-12-17T08:48:59.714Z,93728.94
2022-12-17T08:50:15.053Z,93721.41
2022-12-17T08:51:29.929Z,93732.22
2022-12-17T08:52:45.063Z,93734.50
2022-12-17T08:54:00.163Z,93727.06
2022-12-17T08:55:15.116Z,93730.44
2022-12-17T08:56:30.006Z,93729.59
2022-12-17T08:57:44.918Z,93725.50
2022-12-17T08:58:59.851Z,93734.03
2022-12-17T09:00:14.767Z,93730.91
2022-12-17T09:01:30.279Z,93738.59
2022-12-17T09:02:45.606Z,93730.44
2022-12-17T09:04:01.072Z,93727.13
2022-12-17T09:05:15.835Z,93692.81
2022-12-17T09:06:37.356Z,93735.22
2022-12-17T09:07:54.021Z,93734.44
2022-12-17T09:09:08.867Z,93749.97
2022-12-17T09:10:24.348Z,93734.06
2022-12-17T09:11:39.441Z,93723.44
2022-12-17T09:12:55.356Z,93750.97
2022-12-17T09:14:12.910Z,93735.22
2022-12-17T09:15:28.123Z,93746.44
2022-12-17T09:16:43.584Z,93740.84
2022-12-17T09:17:58.974Z,93740.78
2022-12-17T09:19:14.048Z,93724.25
2022-12-17T09:20:29.824Z,93691.81
2022-12-17T09:21:49.943Z,93742.03
2022-12-17T09:23:04.770Z,93751.97
2022-12-17T09:24:19.866Z,93742.72
2022-12-17T09:25:35.337Z,93754.81
2022-12-17T09:26:50.666Z,93753.34
2022-12-17T09:28:06.052Z,93726.66
2022-12-17T09:29:21.853Z,93719.78
2022-12-17T09:30:37.463Z,93733.09
2022-12-17T09:31:53.138Z,93708.94
2022-12-17T09:33:08.102Z,93731.44
2022-12-17T09:34:23.591Z,93713.53
2022-12-17T09:35:38.831Z,93750.66
2022-12-17T09:36:54.394Z,93741.06
2022-12-17T09:38:16.065Z,93761.72
2022-12-17T09:39:31.264Z,93779.06
2022-12-17T09:40:48.603Z,93779.41
2022-12-17T09:42:10.396Z,93794.16
2022-12-17T09:43:39.325Z,93761.59
2022-12-17T09:45:26.813Z,93779.53
2022-12-17T09:46:54.619Z,93780.16
2022-12-17T09:48:26.898Z,93784.25
2022-12-17T09:49:47.609Z,93795.22
2022-12-17T09:51:05.061Z,93798.38
2022-12-17T09:52:22.600Z,93793.94
2022-12-17T09:53:42.668Z,93817.81
2022-12-17T09:55:05.246Z,93818.59
2022-12-17T09:56:20.726Z,93825.19
2022-12-17T09:57:40.362Z,93824.88
2022-12-17T09:58:58.657Z,93812.03
2022-12-17T10:00:13.885Z,93791.34
2022-12-17T10:01:41.193Z,93763.66
2022-12-17T10:02:58.552Z,93793.94
2022-12-17T10:04:14.096Z,93783.78
2022-12-17T10:05:40.101Z,93774.56
2022-12-17T10:06:55.240Z,93764.00
2022-12-17T10:08:12.276Z,93753.47
2022-12-17T10:09:36.292Z,93749.75
2022-12-17T10:10:52.180Z,93755.69
2022-12-17T10:12:07.551Z,93755.72
2022-12-17T10:13:30.736Z,93761.19
2022-12-17T10:14:46.264Z,93761.59
2022-12-17T10:16:02.130Z,93735.69
2022-12-17T10:17:17.488Z,93760.16
2022-12-17T10:18:35.206Z,93731.38
2022-12-17T10:19:54.814Z,93766.34
2022-12-17T10:21:29.559Z,93773.88
2022-12-17T10:22:45.047Z,93774.78
2022-12-17T10:24:00.412Z,93761.03
2022-12-17T10:25:15.970Z,93738.78
2022-12-17T10:26:44.593Z,93792.19
2022-12-17T10:28:00.339Z,93793.66
2022-12-17T10:29:34.004Z,93750.66
2022-12-17T10:30:49.872Z,93804.84
2022-12-17T10:32:05.195Z,93786.56
2022-12-17T10:33:25.286Z,93789.78
2022-12-17T10:34:40.336Z,93796.78
2022-12-17T10:35:56.401Z,93790.91
2022-12-17T10:37:12.473Z,93786.38
2022-12-17T10:38:46.147Z,93800.34
2022-12-17T10:40:01.896Z,93766.53
2022-12-17T10:41:17.272Z,93741.94
2022-12-17T10:42:58.828Z,93788.59
2022-12-17T10:44:13.984Z,93797.03
2022-12-17T10:45:44.483Z,93790.69
2022-12-17T10:46:59.463Z,93790.03
2022-12-17T10:48:15.022Z,93782.38
2022-12-17T10:49:42.140Z,93763.50
2022-12-17T10:51:00.353Z,93773.31
2022-12-17T10:52:48.652Z,93744.03
2022-12-17T10:54:08.474Z,93660.25
2022-12-17T10:55:24.954Z,93742.03
2022-12-17T10:56:45.288Z,93732.28
2022-12-17T10:58:01.639Z,93752.44
2022-12-17T10:59:17.618Z,93753.66
2022-12-17T11:00:49.691Z,93742.84
2022-12-17T11:02:05.676Z,93737.97
2022-12-17T11:03:22.877Z,93744.09
2022-12-17T11:04:55.871Z,93734.34
2022-12-17T11:06:13.547Z,93765.38
2022-12-17T11:07:34.758Z,93778.22
2022-12-17T11:08:50.777Z,93776.47
2022-12-17T11:10:10.356Z,93770.34
2022-12-17T11:11:31.130Z,93759.81
2022-12-17T11:13:00.767Z,93769.75
2022-12-17T11:14:19.730Z,93761.22
2022-12-17T11:16:18.005Z,93748.75
2022-12-17T11:17:37.425Z,93722.66
2022-12-17T11:18:58.661Z,93742.75
2022-12-17T11:20:19.504Z,93708.53
2022-12-17T11:21:40.513Z,93723.47
2022-12-17T11:23:15.211Z,93710.47
2022-12-17T11:24:40.062Z,93730.78
2022-12-17T11:26:06.903Z,93745.28
2022-12-17T11:27:26.153Z,93741.50
2022-12-17T11:28:47.069Z,93750.91
2022-12-17T11:30:04.354Z,93762.81
2022-12-17T11:31:31.836Z,93767.31
2022-12-17T11:33:19.738Z,93768.13
2022-12-17T11:34:55.808Z,93767.91
2022-12-17T11:36:32.461Z,93761.50
2022-12-17T11:38:04.900Z,93761.41
2022-12-17T11:39:34.829Z,93756.06
2022-12-17T11:40:52.826Z,93764.91
2022-12-17T11:42:11.173Z,93776.69
2022-12-17T11:43:46.887Z,93728.38
2022-12-17T11:45:24.435Z,93756.25
2022-12-17T11:47:11.502Z,93762.03
2022-12-17T11:48:35.973Z,93752.09
2022-12-17T11:50:18.332Z,93762.59
2022-12-17T11:52:23.253Z,93775.88
2022-12-17T11:53:41.352Z,93769.41
2022-12-17T11:54:59.415Z,93773.97
2022-12-17T11:56:55.608Z,93767.41
2022-12-17T11:58:23.338Z,93774.13
2022-12-17T11:59:52.471Z,93779.25
2022-12-17T12:01:24.982Z,93751.91
2022-12-17T12:03:25.376Z,93767.47
2022-12-17T12:05:05.435Z,93770.72
2022-12-17T12:06:29.360Z,93778.56
2022-12-17T12:07:49.339Z,93775.41
2022-12-17T12:09:31.574Z,93774.75
2022-12-17T12:11:16.239Z,93773.22
2022-12-17T12:12:40.239Z,93770.13
2022-12-17T12:14:24.489Z,93765.81
2022-12-17T12:16:13.849Z,93757.75
2022-12-17T12:17:45.797Z,93755.28
2022-12-17T12:19:13.210Z,93758.81
2022-12-17T12:21:04.492Z,93762.75
2022-12-17T12:22:31.545Z,93768.50
2022-12-17T12:24:25.555Z,93764.72
2022-12-17T12:25:50.607Z,93763.19
2022-12-17T12:27:31.878Z,93761.41
2022-12-17T12:28:53.942Z,93760.81
2022-12-17T12:30:28.088Z,93768.13
2022-12-17T12:31:48.589Z,93765.63
2022-12-17T12:33:10.161Z,93766.34
2022-12-17T12:34:32.718Z,93766.41
2022-12-17T12:35:48.881Z,93771.06
2022-12-17T12:37:05.362Z,93762.53
2022-12-17T12:38:20.915Z,93756.44
2022-12-17T12:39:41.325Z,93756.88
2022-12-17T12:41:08.814Z,93768.84
2022-12-17T12:42:39.684Z,93752.13
2022-12-17T12:43:59.501Z,93759.41
2022-12-17T12:45:31.792Z,93765.97
2022-12-17T12:47:11.679Z,93767.03
2022-12-17T12:48:47.203Z,93758.44
2022-12-17T12:50:22.847Z,93761.34
2022-12-17T12:51:46.337Z,93732.69
2022-12-17T12:53:04.344Z,93747.31
2022-12-17T12:54:21.180Z,93717.28
2022-12-17T12:55:36.429Z,93740.72
2022-12-17T12:56:54.305Z,93736.94
2022-12-17T12:58:23.892Z,93733.41
2022-12-17T12:59:49.196Z,93730.72
2022-12-17T13:01:04.212Z,93741.50
2022-12-17T13:02:19.906Z,93728.63
2022-12-17T13:04:07.250Z,93737.69
2022-12-17T13:05:33.760Z,93724.59
2022-12-17T13:06:54.160Z,93730.63
2022-12-17T13:08:10.263Z,93729.34
2022-12-17T13:09:15.921Z,93727.88
2022-12-17T13:10:28.614Z,93736.28
2022-12-17T13:11:36.057Z,93736.50
2022-12-17T13:12:45.796Z,93747.75
2022-12-17T13:13:56.161Z,93741.66
2022-12-17T13:14:58.546Z,93741.47
2022-12-17T13:16:41.026Z,93737.94
2022-12-17T13:18:27.552Z,93740.00
2022-12-17T13:19:37.873Z,93740.16
2022-12-17T13:20:35.244Z,93728.31
2022-12-17T13:21:32.176Z,93739.56
2022-12-17T13:22:36.136Z,93738.28
2022-12-17T13:23:38.035Z,93747.13
2022-12-17T13:24:34.684Z,93729.69
2022-12-17T13:25:31.803Z,93735.53
2022-12-17T13:26:44.022Z,93723.16
2022-12-17T13:27:41.965Z,93728.97
2022-12-17T13:28:38.875Z,93735.94
2022-12-17T13:29:37.908Z,93744.13
2022-12-17T13:30:36.801Z,93735.53
2022-12-17T13:32:01.102Z,93744.91
2022-12-17T13:33:19.609Z,93749.97
2022-12-17T13:34:26.070Z,93749.06
2022-12-17T13:35:37.668Z,93741.97
2022-12-17T13:36:58.417Z,93747.06
2022-12-17T13:38:07.523Z,93737.09
2022-12-17T13:39:31.536Z,93751.78
2022-12-17T13:40:33.760Z,93749.06
2022-12-17T13:41:33.779Z,93719.94
2022-12-17T13:42:32.892Z,93747.50
2022-12-17T13:43:34.311Z,93731.31
2022-12-17T13:44:40.223Z,93751.59
2022-12-17T13:45:38.859Z,93745.94
2022-12-17T13:46:46.977Z,93756.69
2022-12-17T13:47:44.117Z,93755.03
2022-12-17T13:48:41.875Z,93757.56
2022-12-17T13:49:38.531Z,93759.25
2022-12-17T13:50:36.457Z,93760.88
2022-12-17T13:51:35.435Z,93768.38
2022-12-17T13:52:33.738Z,93772.94
2022-12-17T13:53:34.171Z,93763.69
2022-12-17T13:54:31.082Z,93778.38
2022-12-17T13:55:29.303Z,93782.34
2022-12-17T13:56:29.632Z,93775.56
2022-12-17T13:57:26.287Z,93779.69
2022-12-17T13:58:33.393Z,93771.31
2022-12-17T13:59:30.205Z,93775.63
2022-12-17T14:00:30.403Z,93762.53
2022-12-17T14:01:27.150Z,93783.09
2022-12-17T14:02:25.654Z,93784.19
2022-12-17T14:03:42.922Z,93776.81
2022-12-17T14:04:40.887Z,93787.94
2022-12-17T14:05:42.399Z,93788.06
2022-12-17T14:06:39.147Z,93755.59
2022-12-17T14:07:39.208Z,93793.97
2022-12-17T14:08:36.736Z,93789.81
2022-12-17T14:09:38.781Z,93789.50
2022-12-17T14:10:35.617Z,93789.81
2022-12-17T14:11:52.343Z,93771.56
2022-12-17T14:12:50.063Z,93793.88
2022-12-17T14:13:49.114Z,93806.03
2022-12-17T14:14:48.488Z,93785.97
2022-12-17T14:15:50.244Z,93808.69
2022-12-17T14:16:50.782Z,93809.94
2022-12-17T14:17:49.834Z,93780.31
2022-12-17T14:18:53.876Z,93780.97
2022-12-17T14:20:05.392Z,93821.81
2022-12-17T14:21:02.590Z,93823.00
2022-12-17T14:22:00.490Z,93808.75
2022-12-17T14:23:03.334Z,93820.94
2022-12-17T14:24:00.026Z,93821.41
2022-12-17T14:24:56.797Z,93820.28
2022-12-17T14:25:54.127Z,93820.28
2022-12-17T14:26:53.685Z,93816.41
2022-12-17T14:28:01.784Z,93826.19
2022-12-17T14:28:58.455Z,93824.50
2022-12-17T14:29:56.894Z,93821.75
2022-12-17T14:31:32.137Z,93827.81
2022-12-17T14:32:25.312Z,93826.53
2022-12-17T14:33:30.827Z,93827.94
2022-12-17T14:34:27.512Z,93815.75
2022-12-17T14:35:25.643Z,93823.75
2022-12-17T14:36:23.760Z,93821.94
2022-12-17T14:37:23.584Z,93817.31
2022-12-17T14:38:36.924Z,93812.84
2022-12-17T14:39:34.887Z,93819.75
2022-12-17T14:40:31.575Z,93821.84
2022-12-17T14:41:47.509Z,93823.81
2022-12-17T14:42:44.657Z,93829.16
2022-12-17T14:43:41.222Z,93822.38
2022-12-17T14:44:50.310Z,93819.59
2022-12-17T14:46:12.533Z,93796.66
2022-12-17T14:47:22.615Z,93816.38
2022-12-17T14:48:19.250Z,93811.63
2022-12-17T14:49:19.493Z,93817.25
2022-12-17T14:50:16.092Z,93814.94
2022-12-17T14:51:27.702Z,93808.94
2022-12-17T14:52:48.832Z,93814.47
2022-12-17T14:53:45.459Z,93819.25
2022-12-17T14:54:46.893Z,93821.00
2022-12-17T14:55:55.935Z,93819.28
2022-12-17T14:56:54.732Z,93826.16
2022-12-17T14:57:53.214Z,93815.28
2022-12-17T14:58:49.847Z,93823.63
2022-12-17T14:59:46.507Z,93821.72